Time;durP1;ratioP1;P1;durP2;ratioP2;P2;SDS_P1;SDS_P2;PMS_P1;PMS_P2;Temp;Humidity;BMP_temperature;BMP_pressure;BME280_temperature;BME280_humidity;BME280_pressure;Samples;Min_cycle;Max_cycle;Signal;HPM_P1;HPM_P2
2022/01/14 00:00:44;;;;;;;;;;;;;;;;;;5114725;28;19940;-68
2022/01/14 00:03:10;;;;;;;;;;;;;;;;;;5114257;28;19904;-69
2022/01/14 00:05:36;;;;;;;;;;;;;;;;;;5113809;28;19914;-69
2022/01/14 00:08:02;;;;;;;;;;;;;;;;;;5115543;28;19904;-68
2022/01/14 00:10:31;;;;;;;;;;;;;;;;;;5118298;28;20290;-68
2022/01/14 00:12:57;;;;;;;;;;;;;;;;;;5117964;28;19947;-69
2022/01/14 00:15:24;;;;;;;;;;;;;;;;;;5118356;28;19911;-68
2022/01/14 00:17:50;;;;;;;;;;;;;;;;;;5118284;28;20373;-69
2022/01/14 00:20:16;;;;;;;;;;;;;;;;;;5117821;28;19918;-68
2022/01/14 00:22:42;;;;;;;;;;;;;;;;;;5118427;28;19904;-68
2022/01/14 00:33:08;;;;;;;;;;;;;;;;;;5117606;28;19934;-68
2022/01/14 00:35:34;;;;;;;;;;;;;;;;;;5118025;28;20371;-69
2022/01/14 00:38:00;;;;;;;;;;;;;;;;;;5117895;28;19986;-69
2022/01/14 00:40:26;;;;;;;;;;;;;;;;;;5117436;28;19946;-68
2022/01/14 00:42:52;;;;;;;;;;;;;;;;;;5117736;28;20260;-68
2022/01/14 00:45:18;;;;;;;;;;;;;;;;;;5117709;28;19904;-68
2022/01/14 00:47:45;;;;;;;;;;;;;;;;;;5117259;28;20312;-68
2022/01/14 00:50:11;;;;;;;;;;;;;;;;;;5117853;28;19903;-68
2022/01/14 00:52:37;;;;;;;;;;;;;;;;;;5117502;28;20356;-68
2022/01/14 00:55:03;;;;;;;;;;;;;;;;;;5117144;28;20356;-68
2022/01/14 01:00:13;;;;;;;;;;;;;;;;;;5117523;28;20048;-68
2022/01/14 01:02:39;;;;;;;;;;;;;;;;;;5117233;28;20370;-68
2022/01/14 01:05:05;;;;;;;;;;;;;;;;;;5117398;28;19943;-68
2022/01/14 01:07:31;;;;;;;;;;;;;;;;;;5117145;28;19994;-68
2022/01/14 01:09:57;;;;;;;;;;;;;;;;;;5117261;28;19999;-69
2022/01/14 01:12:34;;;;;;;;;;;;;;;;;;5117144;28;20029;-69
2022/01/14 01:15:09;;;;;;;;;;;;;;;;;;5116844;28;19910;-68
2022/01/14 01:17:35;;;;;;;;;;;;;;;;;;5117085;28;19926;-69
2022/01/14 01:20:01;;;;;;;;;;;;;;;;;;5117062;28;19911;-69
2022/01/14 01:22:27;;;;;;;;;;;;;;;;;;5116671;28;19904;-68
2022/01/14 01:24:53;;;;;;;;;;;;;;;;;;5117451;28;19911;-68
2022/01/14 01:27:21;;;;;;;;;;;;;;;;;;5116980;28;19903;-68
2022/01/14 01:30:00;;;;;;;;;;;;;;;;;;5116607;28;19998;-68
2022/01/14 01:32:26;;;;;;;;;;;;;;;;;;5116881;28;19951;-68
2022/01/14 01:34:52;;;;;;;;;;;;;;;;;;5116903;28;20275;-68
2022/01/14 01:37:18;;;;;;;;;;;;;;;;;;5116281;28;19904;-68
2022/01/14 01:39:44;;;;;;;;;;;;;;;;;;5116669;28;19911;-68
2022/01/14 01:42:10;;;;;;;;;;;;;;;;;;5116691;28;19904;-68
2022/01/14 01:44:37;;;;;;;;;;;;;;;;;;5116224;28;19908;-68
2022/01/14 01:47:03;;;;;;;;;;;;;;;;;;5116687;28;20347;-68
2022/01/14 01:49:29;;;;;;;;;;;;;;;;;;5116640;28;20363;-68
2022/01/14 01:51:54;;;;;;;;;;;;;;;;;;5115974;28;19911;-69
2022/01/14 01:54:20;;;;;;;;;;;;;;;;;;5116379;28;19904;-68
2022/01/14 01:56:47;;;;;;;;;;;;;;;;;;5116167;28;19943;-68
2022/01/14 01:59:13;;;;;;;;;;;;;;;;;;5116528;28;19939;-68
2022/01/14 02:01:39;;;;;;;;;;;;;;;;;;5116267;28;19957;-68
2022/01/14 02:04:05;;;;;;;;;;;;;;;;;;5116223;28;19908;-69
2022/01/14 02:06:31;;;;;;;;;;;;;;;;;;5116445;28;20371;-68
2022/01/14 02:08:57;;;;;;;;;;;;;;;;;;5115882;28;19916;-68
2022/01/14 02:11:23;;;;;;;;;;;;;;;;;;5115614;28;20283;-68
2022/01/14 02:13:50;;;;;;;;;;;;;;;;;;5116007;28;19911;-68
2022/01/14 02:16:20;;;;;;;;;;;;;;;;;;5116208;28;19911;-68
2022/01/14 02:26:45;;;;;;;;;;;;;;;;;;5094338;28;19987;-66
2022/01/14 02:29:11;;;;;;;;;;;;;;;;;;5094573;28;19942;-68
2022/01/14 02:31:37;;;;;;;;;;;;;;;;;;5094194;28;19957;-67
2022/01/14 02:34:03;;;;;;;;;;;;;;;;;;5094859;28;19904;-67
2022/01/14 02:36:29;;;;;;;;;;;;;;;;;;5095180;28;19911;-67
2022/01/14 02:38:55;;;;;;;;;;;;;;;;;;5094664;28;19904;-67
2022/01/14 02:41:21;;;;;;;;;;;;;;;;;;5095056;28;19904;-67
2022/01/14 02:43:47;;;;;;;;;;;;;;;;;;5095128;28;19939;-67
2022/01/14 02:46:15;;;;;;;;;;;;;;;;;;5095050;28;20460;-67
2022/01/14 02:48:41;;;;;;;;;;;;;;;;;;5094957;28;19904;-67
2022/01/14 02:51:13;;;;;;;;;;;;;;;;;;5094850;28;19907;-68
2022/01/14 02:56:04;;;;;;;;;;;;;;;;;;5094825;28;19944;-67
2022/01/14 02:58:30;;;;;;;;;;;;;;;;;;5095229;28;19909;-67
2022/01/14 03:00:56;;;;;;;;;;;;;;;;;;5094296;28;20360;-67
2022/01/14 03:03:23;;;;;;;;;;;;;;;;;;5094747;28;19949;-67
2022/01/14 03:05:49;;;;;;;;;;;;;;;;;;5094690;28;20263;-68
2022/01/14 03:08:15;;;;;;;;;;;;;;;;;;5094080;28;19931;-67
2022/01/14 03:10:41;;;;;;;;;;;;;;;;;;5094961;28;20375;-67
2022/01/14 03:13:07;;;;;;;;;;;;;;;;;;5094433;28;19957;-70
2022/01/14 03:15:33;;;;;;;;;;;;;;;;;;5094312;28;19988;-67
2022/01/14 03:17:59;;;;;;;;;;;;;;;;;;5094582;28;19904;-67
2022/01/14 03:20:45;;;;;;;;;;;;;;;;;;5094356;28;19904;-68
2022/01/14 03:23:13;;;;;;;;;;;;;;;;;;5093928;28;19942;-68
2022/01/14 03:25:59;;;;;;;;;;;;;;;;;;5094246;28;19904;-67
2022/01/14 03:28:25;;;;;;;;;;;;;;;;;;5094356;28;19947;-67
2022/01/14 03:30:51;;;;;;;;;;;;;;;;;;5094904;28;19911;-67
2022/01/14 03:33:17;;;;;;;;;;;;;;;;;;5094139;28;19911;-67
2022/01/14 03:35:43;;;;;;;;;;;;;;;;;;5093879;28;19904;-67
2022/01/14 03:38:09;;;;;;;;;;;;;;;;;;5094302;28;19972;-67
2022/01/14 03:40:35;;;;;;;;;;;;;;;;;;5094597;28;20335;-68
2022/01/14 03:43:01;;;;;;;;;;;;;;;;;;5092897;28;19939;-67
2022/01/14 03:45:27;;;;;;;;;;;;;;;;;;5094066;28;19904;-68
2022/01/14 03:47:53;;;;;;;;;;;;;;;;;;5092705;28;19911;-68
2022/01/14 03:50:19;;;;;;;;;;;;;;;;;;5093619;28;19949;-68
2022/01/14 03:52:45;;;;;;;;;;;;;;;;;;5093941;28;19913;-68
2022/01/14 03:55:11;;;;;;;;;;;;;;;;;;5093977;28;20229;-67
2022/01/14 03:57:37;;;;;;;;;;;;;;;;;;5093585;28;19915;-68
2022/01/14 04:00:03;;;;;;;;;;;;;;;;;;5094007;28;20130;-67
2022/01/14 04:02:29;;;;;;;;;;;;;;;;;;5093859;28;20374;-67
2022/01/14 04:04:55;;;;;;;;;;;;;;;;;;5093471;28;19910;-67
2022/01/14 04:07:21;;;;;;;;;;;;;;;;;;5092502;28;20321;-67
2022/01/14 04:09:47;;;;;;;;;;;;;;;;;;5093683;28;19916;-67
2022/01/14 04:12:19;;;;;;;;;;;;;;;;;;5093311;28;20263;-67
2022/01/14 04:17:11;;;;;;;;;;;;;;;;;;5093720;28;19908;-67
2022/01/14 04:19:37;;;;;;;;;;;;;;;;;;5093311;28;19911;-67
2022/01/14 04:22:03;;;;;;;;;;;;;;;;;;5093773;28;19908;-67
2022/01/14 04:24:30;;;;;;;47.20;23.80;;;;;;;;;;5092464;28;20750;-67
2022/01/14 04:26:56;;;;;;;53.05;23.52;;;;;;;;;;5093180;28;20024;-67
2022/01/14 04:29:22;;;;;;;52.60;24.00;;;;;;;;;;5093348;28;20016;-68
2022/01/14 04:31:48;;;;;;;48.50;22.77;;;;;;;;;;5092603;28;20031;-67
2022/01/14 04:34:16;;;;;;;49.08;23.50;;;;;;;;;;5093152;28;20519;-67
2022/01/14 04:36:43;;;;;;;48.72;24.45;;;;;;;;;;5093082;28;20103;-67
2022/01/14 04:39:10;;;;;;;51.55;22.98;;;;;;;;;;5092703;28;20438;-67
2022/01/14 04:41:36;;;;;;;52.28;24.58;;;;;;;;;;5093049;28;20032;-67
2022/01/14 04:44:03;;;;;;;51.55;23.88;;;;;;;;;;5093174;28;20024;-67
2022/01/14 04:49:08;;;;;;;48.58;23.25;;;;;;;;;;5093336;28;20456;-67
2022/01/14 04:51:34;;;;;;;54.65;25.17;;;;;;;;;;5092895;28;20032;-68
2022/01/14 04:54:02;;;;;;;51.08;24.63;;;;;;;;;;5093734;28;20027;-67
2022/01/14 04:56:28;;;;;;;52.85;23.73;;;;;;;;;;5096829;28;20077;-67
2022/01/14 04:58:55;;;;;;;51.47;24.23;;;;;;;;;;5096596;28;20031;-67
2022/01/14 05:01:21;;;;;;;53.95;25.70;;;;;;;;;;5096142;28;20484;-69
2022/01/14 05:03:48;;;;;;;51.85;24.80;;;;;;;;;;5097131;28;20048;-68
2022/01/14 05:06:14;;;;;;;59.85;28.50;;;;;;;;;;5096518;28;20047;-68
2022/01/14 05:08:40;;;;;;;44.03;23.40;;;;;;;;;;5095833;28;20052;-67
2022/01/14 05:13:45;;;;;;;50.17;24.95;;;;;;;;;;5095863;28;20032;-68
2022/01/14 05:16:11;;;;;;;53.78;22.58;;;;;;;;;;5096359;28;20027;-68
2022/01/14 05:18:38;;;;;;;50.63;24.67;;;;;;;;;;5096302;28;20392;-68
2022/01/14 05:21:08;;;;;;;43.90;23.80;;;;;;;;;;5095892;28;20077;-67
2022/01/14 05:23:34;;;;;;;50.25;24.50;;;;;;;;;;5096167;28;20035;-68
2022/01/14 05:26:00;;;;;;;55.05;26.02;;;;;;;;;;5096267;28;20024;-67
2022/01/14 05:28:27;;;;;;;52.35;27.83;;;;;;;;;;5095877;28;20026;-67
2022/01/14 05:30:53;;;;;;;54.53;25.55;;;;;;;;;;5096096;28;20099;-67
2022/01/14 05:33:19;;;;;;;64.43;27.58;;;;;;;;;;5095989;28;20072;-67
2022/01/14 05:35:45;;;;;;;57.65;27.48;;;;;;;;;;5095595;28;20073;-67
2022/01/14 05:38:12;;;;;;;57.33;25.42;;;;;;;;;;5096151;28;20411;-67
2022/01/14 05:40:38;;;;;;;62.13;26.75;;;;;;;;;;5096208;28;20025;-67
2022/01/14 05:43:04;;;;;;;56.63;27.23;;;;;;;;;;5095527;28;20039;-67
2022/01/14 05:45:30;;;;;;;59.17;28.10;;;;;;;;;;5095747;28;20016;-66
2022/01/14 05:47:57;;;;;;;52.22;25.38;;;;;;;;;;5095789;28;20028;-66
2022/01/14 05:50:25;;;;;;;54.60;26.52;;;;;;;;;;5095339;28;20099;-67
2022/01/14 05:52:51;;;;;;;45.25;23.17;;;;;;;;;;5095742;28;20024;-67
2022/01/14 05:55:20;;;;;;;42.30;20.70;;;;;;;;;;5095799;28;20020;-66
2022/01/14 05:57:47;;;;;;;50.25;24.10;;;;;;;;;;5095077;28;20047;-66
2022/01/14 06:00:15;;;;;;;55.55;26.52;;;;;;;;;;5095464;28;20069;-66
2022/01/14 06:02:41;;;;;;;49.03;25.80;;;;;;;;;;5095463;28;20052;-66
2022/01/14 06:05:07;;;;;;;50.63;25.02;;;;;;;;;;5094155;28;20077;-67
2022/01/14 06:07:34;;;;;;;64.60;34.63;;;;;;;;;;5095184;28;20032;-66
2022/01/14 06:10:00;;;;;;;56.03;30.10;;;;;;;;;;5090496;28;20079;-65
2022/01/14 06:12:26;;;;;;;83.32;39.47;;;;;;;;;;5094555;28;20032;-66
2022/01/14 06:14:52;;;;;;;77.97;34.72;;;;;;;;;;5095072;28;20017;-65
2022/01/14 06:17:18;;;;;;;77.07;37.03;;;;;;;;;;5093763;28;20057;-67
2022/01/14 06:19:45;;;;;;;71.90;38.03;;;;;;;;;;5094569;28;20024;-67
2022/01/14 06:22:11;;;;;;;80.95;36.60;;;;;;;;;;5094790;28;20056;-68
2022/01/14 06:24:37;;;;;;;65.32;35.83;;;;;;;;;;5094266;28;20443;-68
2022/01/14 06:27:04;;;;;;;58.08;30.80;;;;;;;;;;5094710;28;20108;-68
2022/01/14 06:29:30;;;;;;;64.85;29.45;;;;;;;;;;5094782;28;20020;-68
2022/01/14 06:31:56;;;;;;;56.78;27.83;;;;;;;;;;5094170;28;20021;-67
2022/01/14 06:34:22;;;;;;;53.30;26.73;;;;;;;;;;5094523;28;20024;-69
2022/01/14 06:36:49;;;;;;;58.00;29.50;;;;;;;;;;5086607;28;20020;-69
2022/01/14 06:39:15;;;;;;;58.53;28.88;;;;;;;;;;5073874;28;20025;-67
2022/01/14 06:41:41;;;;;;;55.10;29.23;;;;;;;;;;5074175;28;20020;-68
2022/01/14 06:44:07;;;;;;;63.60;31.77;;;;;;;;;;5074204;28;20028;-68
2022/01/14 06:46:34;;;;;;;79.90;38.15;;;;;;;;;;5073596;28;20035;-69
2022/01/14 06:49:00;;;;;;;74.38;37.08;;;;;;;;;;5074141;28;20025;-68
2022/01/14 06:51:26;;;;;;;63.95;31.80;;;;;;;;;;5073971;28;20078;-70
2022/01/14 06:53:53;;;;;;;73.20;36.72;;;;;;;;;;5073418;28;20033;-69
2022/01/14 06:56:19;;;;;;;76.65;37.70;;;;;;;;;;5073908;28;20092;-69
2022/01/14 06:58:45;;;;;;;71.45;37.72;;;;;;;;;;5073989;28;20027;-70
2022/01/14 07:01:12;;;;;;;76.43;38.58;;;;;;;;;;5073586;28;20051;-70
2022/01/14 07:03:38;;;;;;;79.40;35.08;;;;;;;;;;5073880;28;20024;-70
2022/01/14 07:06:04;;;;;;;82.00;38.85;;;;;;;;;;5073447;28;20100;-69
2022/01/14 07:08:30;;;;;;;69.32;35.72;;;;;;;;;;5085105;28;20067;-68
2022/01/14 07:10:57;;;;;;;75.57;43.00;;;;;;;;;;5093231;28;20055;-68
2022/01/14 07:13:23;;;;;;;65.28;30.77;;;;;;;;;;5093326;28;20031;-69
2022/01/14 07:15:49;;;;;;;56.80;29.95;;;;;;;;;;5093920;28;20028;-68
2022/01/14 07:18:16;;;;;;;64.05;30.08;;;;;;;;;;5093647;28;20046;-69
2022/01/14 07:20:42;;;;;;;60.90;32.22;;;;;;;;;;5093454;28;20018;-70
2022/01/14 07:23:08;;;;;;;116.50;57.90;;;;;;;;;;5093594;28;20099;-70
2022/01/14 07:25:35;;;;;;;83.13;40.17;;;;;;;;;;5093905;28;20020;-71
2022/01/14 07:28:01;;;;;;;55.58;29.10;;;;;;;;;;5093429;28;20054;-70
2022/01/14 07:30:28;;;;;;;70.90;33.38;;;;;;;;;;5093093;28;20066;-69
2022/01/14 07:32:54;;;;;;;63.63;30.42;;;;;;;;;;5093019;28;20036;-69
2022/01/14 07:35:20;;;;;;;55.13;28.77;;;;;;;;;;5093077;28;20388;-68
2022/01/14 07:37:46;;;;;;;75.32;36.72;;;;;;;;;;5093422;28;20028;-68
2022/01/14 07:40:13;;;;;;;71.72;32.78;;;;;;;;;;5092863;28;20016;-68
2022/01/14 07:42:39;;;;;;;58.83;27.95;;;;;;;;;;5092263;28;20028;-69
2022/01/14 07:45:06;;;;;;;62.75;30.75;;;;;;;;;;5093081;28;20506;-68
2022/01/14 07:47:32;;;;;;;61.78;31.80;;;;;;;;;;5091709;28;20032;-64
2022/01/14 07:49:58;;;;;;;82.53;38.72;;;;;;;;;;5091711;28;20436;-66
2022/01/14 07:52:25;;;;;;;67.90;32.50;;;;;;;;;;5092219;28;20036;-67
2022/01/14 07:54:51;;;;;;;65.88;35.50;;;;;;;;;;5093190;28;20028;-67
2022/01/14 07:57:18;;;;;;;71.10;37.40;;;;;;;;;;5092895;28;20082;-68
2022/01/14 07:59:44;;;;;;;68.93;38.05;;;;;;;;;;5093256;28;20064;-68
2022/01/14 08:02:12;;;;;;;47.40;24.65;;;;;;;;;;5093264;28;20048;-68
2022/01/14 08:04:40;;;;;;;63.75;37.55;;;;;;;;;;5092811;28;20115;-69
2022/01/14 08:07:10;;;;;;;49.53;25.42;;;;;;;;;;5092460;28;20093;-68
2022/01/14 08:09:40;;;;;;;44.45;24.25;;;;;;;;;;5092131;28;20445;-67
2022/01/14 08:12:07;;;;;;;53.78;26.42;;;;;;;;;;5086566;28;20385;-67
2022/01/14 08:14:33;;;;;;;55.40;31.33;;;;;;;;;;5092556;28;20392;-68
2022/01/14 08:16:59;;;;;;;42.70;23.13;;;;;;;;;;5092415;28;20088;-67
2022/01/14 08:19:26;;;;;;;49.70;26.50;;;;;;;;;;5093022;28;20145;-67
2022/01/14 08:21:52;;;;;;;65.43;32.38;;;;;;;;;;5092753;28;20020;-66
2022/01/14 08:24:18;;;;;;;51.15;26.00;;;;;;;;;;5092623;28;20480;-68
2022/01/14 08:26:45;;;;;;;54.33;24.60;;;;;;;;;;5092815;28;20468;-68
2022/01/14 08:29:11;;;;;;;46.67;23.55;;;;;;;;;;5094505;28;20032;-67
2022/01/14 08:31:37;;;;;;;45.50;24.13;;;;;;;;;;5096394;28;20421;-70
2022/01/14 08:34:03;;;;;;;46.15;22.73;;;;;;;;;;5096423;28;20113;-69
2022/01/14 08:36:30;;;;;;;52.50;26.77;;;;;;;;;;5096046;28;20016;-69
2022/01/14 08:38:57;;;;;;;52.28;25.10;;;;;;;;;;5096177;28;20098;-68
2022/01/14 08:41:28;;;;;;;49.50;28.08;;;;;;;;;;5096782;28;20095;-70
2022/01/14 08:43:54;;;;;;;47.53;24.42;;;;;;;;;;5096942;28;20024;-69
2022/01/14 08:46:21;;;;;;;48.35;22.38;;;;;;;;;;5096272;28;20024;-72
2022/01/14 08:48:47;;;;;;;44.42;24.23;;;;;;;;;;5096832;28;20460;-68
2022/01/14 08:51:13;;;;;;;42.97;22.83;;;;;;;;;;5095363;28;20024;-68
2022/01/14 08:53:39;;;;;;;41.45;23.92;;;;;;;;;;5095992;28;20391;-68
2022/01/14 08:56:06;;;;;;;51.65;28.15;;;;;;;;;;5094223;28;20024;-70
2022/01/14 08:58:32;;;;;;;46.03;24.98;;;;;;;;;;5087265;28;20052;-70
2022/01/14 09:00:59;;;;;;;45.08;23.08;;;;;;;;;;5092717;28;20049;-70
2022/01/14 09:03:25;;;;;;;71.28;36.28;;;;;;;;;;5086404;28;20072;-69
2022/01/14 09:05:51;;;;;;;38.20;21.23;;;;;;;;;;5093343;28;20372;-70
2022/01/14 09:08:17;;;;;;;41.22;23.77;;;;;;;;;;5095557;28;20024;-71
2022/01/14 09:10:43;;;;;;;46.60;22.42;;;;;;;;;;5094803;28;20040;-71
2022/01/14 09:13:10;;;;;;;62.13;34.05;;;;;;;;;;5095131;28;20074;-68
2022/01/14 09:15:36;;;;;;;42.55;21.95;;;;;;;;;;5096041;28;20024;-67
2022/01/14 09:18:03;;;;;;;36.53;22.00;;;;;;;;;;5094827;28;20022;-67
2022/01/14 09:20:29;;;;;;;52.75;26.92;;;;;;;;;;5095493;28;20547;-70
2022/01/14 09:22:58;;;;;;;50.80;25.88;;;;;;;;;;5095987;28;20032;-70
2022/01/14 09:25:25;;;;;;;61.40;32.55;;;;;;;;;;5096093;28;20107;-70
2022/01/14 09:27:52;;;;;;;61.75;25.98;;;;;;;;;;5095498;28;20095;-71
2022/01/14 09:30:19;;;;;;;56.08;29.88;;;;;;;;;;5095848;28;20103;-69
2022/01/14 09:32:45;;;;;;;79.15;38.67;;;;;;;;;;5085738;28;20029;-68
2022/01/14 09:35:13;;;;;;;63.58;34.33;;;;;;;;;;5074254;28;20436;-69
2022/01/14 09:37:40;;;;;;;54.17;30.55;;;;;;;;;;5085065;28;20016;-69
2022/01/14 09:40:07;;;;;;;67.43;32.85;;;;;;;;;;5089999;28;20358;-68
2022/01/14 09:42:33;;;;;;;58.75;35.53;;;;;;;;;;5091182;28;20074;-69
2022/01/14 09:44:59;;;;;;;72.53;39.05;;;;;;;;;;5095392;28;20078;-67
2022/01/14 09:47:26;;;;;;;79.88;42.40;;;;;;;;;;5095254;28;20020;-68
2022/01/14 09:49:52;;;;;;;114.57;60.05;;;;;;;;;;5092503;28;20028;-69
2022/01/14 09:52:19;;;;;;;100.18;51.13;;;;;;;;;;5092221;28;20323;-68
2022/01/14 09:54:46;;;;;;;116.55;62.33;;;;;;;;;;5093170;28;20024;-69
2022/01/14 09:57:15;;;;;;;98.18;49.67;;;;;;;;;;5091011;28;20024;-67
2022/01/14 09:59:41;;;;;;;89.00;50.67;;;;;;;;;;5092170;28;20080;-66
2022/01/14 10:02:07;;;;;;;101.38;54.25;;;;;;;;;;5091725;28;20035;-67
2022/01/14 10:04:35;;;;;;;110.55;53.38;;;;;;;;;;5091707;28;20182;-69
2022/01/14 10:07:03;;;;;;;88.70;48.28;;;;;;;;;;5092491;28;20518;-68
2022/01/14 10:09:43;;;;;;;80.43;40.60;;;;;;;;;;5091640;28;20055;-68
2022/01/14 10:12:17;;;;;;;76.97;38.95;;;;;;;;;;5089680;28;20094;-67
2022/01/14 10:15:06;;;;;;;133.55;65.43;;;;;;;;;;5074006;28;20035;-68
2022/01/14 10:17:40;;;;;;;81.03;44.60;;;;;;;;;;5073058;28;20027;-68
2022/01/14 10:20:08;;;;;;;73.63;41.78;;;;;;;;;;5073964;28;20481;-67
2022/01/14 10:22:36;;;;;;;79.25;48.22;;;;;;;;;;5073991;28;20029;-68
2022/01/14 10:25:02;;;;;;;78.45;41.40;;;;;;;;;;5073731;28;20025;-68
2022/01/14 10:27:32;;;;;;;78.40;43.25;;;;;;;;;;5073480;28;20029;-68
2022/01/14 10:30:07;;;;;;;85.50;47.47;;;;;;;;;;5074042;28;20091;-67
2022/01/14 10:32:34;;;;;;;84.55;45.78;;;;;;;;;;5073008;28;20384;-67
2022/01/14 10:35:07;;;;;;;90.28;46.83;;;;;;;;;;5092974;28;20027;-68
2022/01/14 10:37:34;;;;;;;76.57;38.58;;;;;;;;;;5093816;28;20035;-68
2022/01/14 10:40:02;;;;;;;97.85;47.85;;;;;;;;;;5094356;28;20039;-67
2022/01/14 10:42:30;;;;;;;61.35;30.27;;;;;;;;;;5094061;28;20037;-69
2022/01/14 10:45:13;;;;;;;34.83;17.98;;;;;;;;;;5093765;28;20035;-67
2022/01/14 10:47:39;;;;;;;22.42;12.82;;;;;;;;;;5094031;28;20016;-66
2022/01/14 10:50:05;;;;;;;26.23;14.10;;;;;;;;;;5094212;28;20028;-68
2022/01/14 10:52:32;;;;;;;28.42;15.52;;;;;;;;;;5092796;28;20032;-69
2022/01/14 10:54:59;;;;;;;23.92;12.82;;;;;;;;;;5092424;28;20087;-70
2022/01/14 10:57:30;;;;;;;21.00;9.95;;;;;;;;;;5093380;28;20024;-70
2022/01/14 10:59:58;;;;;;;16.52;9.90;;;;;;;;;;5092757;28;20039;-69
2022/01/14 11:02:53;;;;;;;19.50;9.85;;;;;;;;;;5092857;28;20060;-70
2022/01/14 11:05:21;;;;;;;17.67;9.77;;;;;;;;;;5091712;28;20119;-69
2022/01/14 11:07:48;;;;;;;20.42;9.27;;;;;;;;;;5093630;28;20537;-69
2022/01/14 11:10:14;;;;;;;23.48;11.88;;;;;;;;;;5093301;28;20097;-68
2022/01/14 11:12:41;;;;;;;17.05;9.55;;;;;;;;;;5092789;28;20035;-69
2022/01/14 11:15:08;;;;;;;25.88;12.57;;;;;;;;;;5093438;28;20035;-69
2022/01/14 11:17:36;;;;;;;17.25;7.32;;;;;;;;;;5090507;28;20483;-69
2022/01/14 11:20:04;;;;;;;23.58;11.00;;;;;;;;;;5092997;28;20028;-69
2022/01/14 11:25:15;;;;;;;28.67;15.32;;;;;;;;;;5092426;28;20116;-70
2022/01/14 11:27:47;;;;;;;19.25;9.23;;;;;;;;;;5092994;28;20020;-72
2022/01/14 11:30:14;;;;;;;27.92;14.48;;;;;;;;;;5093328;28;20016;-70
2022/01/14 11:32:56;;;;;;;21.15;11.55;;;;;;;;;;5092148;28;20096;-70
2022/01/14 11:35:23;;;;;;;26.13;12.65;;;;;;;;;;5090570;28;20016;-71
2022/01/14 11:37:50;;;;;;;19.88;11.52;;;;;;;;;;5091968;28;20422;-72
2022/01/14 11:40:16;;;;;;;13.43;8.13;;;;;;;;;;5093284;28;20357;-70
2022/01/14 11:42:44;;;;;;;12.50;8.10;;;;;;;;;;5092970;28;20488;-69
2022/01/14 11:45:16;;;;;;;15.82;9.30;;;;;;;;;;5093238;28;20384;-68
2022/01/14 11:47:44;;;;;;;16.77;8.80;;;;;;;;;;5092970;28;20024;-68
2022/01/14 11:50:33;;;;;;;16.73;9.43;;;;;;;;;;5091577;28;20020;-68
2022/01/14 11:53:01;;;;;;;14.10;5.95;;;;;;;;;;5091340;28;20430;-68
2022/01/14 11:55:38;;;;;;;15.00;8.00;;;;;;;;;;5091903;28;20030;-69
2022/01/14 11:58:07;;;;;;;17.20;8.00;;;;;;;;;;5091311;28;20028;-72
2022/01/14 12:00:41;;;;;;;18.98;9.75;;;;;;;;;;5092845;28;20028;-69
2022/01/14 12:03:07;;;;;;;13.35;7.38;;;;;;;;;;5092524;28;20495;-70
2022/01/14 12:05:34;;;;;;;19.80;9.15;;;;;;;;;;5095996;28;20480;-68
2022/01/14 12:08:03;;;;;;;9.80;5.68;;;;;;;;;;5097673;28;20106;-67
2022/01/14 12:10:31;;;;;;;15.52;7.65;;;;;;;;;;5096539;28;20036;-68
2022/01/14 12:13:15;;;;;;;14.82;8.68;;;;;;;;;;5096768;28;20038;-67
2022/01/14 12:15:56;;;;;;;13.63;7.97;;;;;;;;;;5096739;28;20586;-70
2022/01/14 12:18:48;;;;;;;14.32;8.20;;;;;;;;;;5097094;28;20111;-70
2022/01/14 12:21:15;;;;;;;15.55;8.50;;;;;;;;;;5073529;28;20035;-71
2022/01/14 12:23:41;;;;;;;15.75;8.82;;;;;;;;;;5096806;28;20085;-69
2022/01/14 12:26:18;;;;;;;16.45;10.15;;;;;;;;;;5097259;28;20142;-70
2022/01/14 12:28:45;;;;;;;15.38;8.63;;;;;;;;;;5097019;28;20024;-68
2022/01/14 12:32:29;;;;;;;19.05;10.10;;;;;;;;;;5110610;27;20412;-69
2022/01/14 12:38:03;;;;;;;15.57;8.07;;;;;;;;;;5131102;27;20331;-69
2022/01/14 12:40:32;;;;;;;16.75;8.25;;;;;;;;;;5108180;28;20484;-68
2022/01/14 12:43:00;;;;;;;23.23;12.68;;;;;;;;;;5111167;28;20070;-69
2022/01/14 12:45:28;;;;;;;19.38;10.40;;;;;;;;;;5110374;28;20055;-70
2022/01/14 12:48:12;;;;;;;21.48;12.80;;;;;;;;;;5110100;28;20115;-67
2022/01/14 12:50:38;;;;;;;18.10;10.88;;;;;;;;;;5109894;28;20396;-69
2022/01/14 12:53:05;;;;;;;16.75;8.20;;;;;;;;;;5110181;28;20484;-69
2022/01/14 12:55:36;;;;;;;19.55;10.15;;;;;;;;;;5110138;28;20470;-69
2022/01/14 13:01:52;;;;;;;18.27;10.77;;;;;;;;;;5110767;27;20829;-69
2022/01/14 13:04:19;;;;;;;17.38;12.10;;;;;;;;;;5110810;28;20032;-70
2022/01/14 13:09:21;;;;;;;23.05;13.45;;;;;;;;;;5110988;27;20401;-67
2022/01/14 13:11:49;;;;;;;14.38;7.68;;;;;;;;;;5110668;28;20031;-70
2022/01/14 13:14:19;;;;;;;21.40;11.63;;;;;;;;;;5110779;28;20024;-71
2022/01/14 13:16:53;;;;;;;20.15;12.23;;;;;;;;;;5111046;28;20479;-70
2022/01/14 13:20:44;;;;;;;25.08;14.30;;;;;;;;;;5110537;27;20388;-69
2022/01/14 13:23:10;;;;;;;29.70;16.58;;;;;;;;;;5111319;28;20476;-68
2022/01/14 13:25:52;;;;;;;23.48;13.00;;;;;;;;;;5110370;27;20803;-70
2022/01/14 13:28:20;;;;;;;21.90;12.48;;;;;;;;;;5110828;28;20107;-70
2022/01/14 13:30:46;;;;;;;24.33;16.15;;;;;;;;;;5111102;28;20016;-71
2022/01/14 13:33:14;;;;;;;26.05;15.43;;;;;;;;;;5110829;28;20031;-70
2022/01/14 13:35:41;;;;;;;21.00;11.75;;;;;;;;;;5110809;28;20030;-71
2022/01/14 13:44:34;;;;;;;19.08;10.98;;;;;;;;;;5111388;27;20397;-69
2022/01/14 13:47:02;;;;;;;19.83;9.35;;;;;;;;;;5110651;28;20483;-70
2022/01/14 13:49:29;;;;;;;17.48;10.05;;;;;;;;;;5111058;28;20055;-70
2022/01/14 13:52:02;;;;;;;18.10;9.07;;;;;;;;;;5111191;28;20032;-70
2022/01/14 13:54:28;;;;;;;15.30;8.68;;;;;;;;;;5110480;28;20065;-71
2022/01/14 13:56:54;;;;;;;17.85;7.28;;;;;;;;;;5111169;28;20090;-69
2022/01/14 13:59:21;;;;;;;13.68;7.22;;;;;;;;;;5111059;28;20020;-70
2022/01/14 14:01:58;;;;;;;18.10;9.55;;;;;;;;;;5110554;28;20046;-70
2022/01/14 14:04:31;;;;;;;22.55;10.68;;;;;;;;;;5110926;28;20034;-70
2022/01/14 14:07:10;;;;;;;16.63;10.25;;;;;;;;;;5110892;28;20027;-70
2022/01/14 14:10:47;;;;;;;19.23;10.63;;;;;;;;;;5110769;27;20447;-68
2022/01/14 14:18:08;;;;;;;24.95;15.05;;;;;;;;;;5110945;27;20458;-70
2022/01/14 14:20:35;;;;;;;22.50;12.38;;;;;;;;;;5111298;28;20038;-69
2022/01/14 14:23:21;;;;;;;18.35;11.68;;;;;;;;;;5110729;28;20039;-69
2022/01/14 14:25:48;;;;;;;29.30;17.38;;;;;;;;;;5111139;28;20034;-69
2022/01/14 14:28:15;;;;;;;47.30;25.13;;;;;;;;;;5110993;28;20030;-70
2022/01/14 14:30:48;;;;;;;25.65;15.73;;;;;;;;;;5110397;28;20035;-69
2022/01/14 14:33:15;;;;;;;28.30;15.40;;;;;;;;;;5110498;28;20027;-71
2022/01/14 14:35:42;;;;;;;24.05;12.38;;;;;;;;;;5110763;28;20492;-69
2022/01/14 14:38:14;;;;;;;23.15;15.43;;;;;;;;;;5110554;28;20032;-69
2022/01/14 14:40:41;;;;;;;39.63;22.33;;;;;;;;;;5110911;28;20119;-70
2022/01/14 14:48:40;;;;;;;19.85;12.13;;;;;;;;;;5111577;27;20388;-70
2022/01/14 14:51:06;;;;;;;22.48;15.05;;;;;;;;;;5110844;28;20027;-69
2022/01/14 14:53:32;;;;;;;24.95;17.50;;;;;;;;;;5111513;28;20379;-71
2022/01/14 14:55:59;;;;;;;43.22;24.25;;;;;;;;;;5109847;28;20024;-70
2022/01/14 14:58:25;;;;;;;53.15;32.13;;;;;;;;;;5110799;28;20026;-70
2022/01/14 15:01:15;;;;;;;26.42;15.88;;;;;;;;;;5111663;27;20389;-71
2022/01/14 15:03:41;;;;;;;38.47;21.60;;;;;;;;;;5111442;28;20097;-71
2022/01/14 15:06:09;;;;;;;33.53;21.33;;;;;;;;;;5110836;28;20020;-71
2022/01/14 15:08:35;;;;;;;24.08;16.05;;;;;;;;;;5111252;28;20032;-71
2022/01/14 15:11:01;;;;;;;29.27;18.15;;;;;;;;;;5111168;28;20430;-70
2022/01/14 15:13:29;;;;;;;38.78;20.77;;;;;;;;;;5110635;28;20027;-70
2022/01/14 15:18:22;;;;;;;29.30;20.67;;;;;;;;;;5110617;28;20054;-69
2022/01/14 15:20:48;;;;;;;20.08;11.77;;;;;;;;;;5110965;28;20111;-70
2022/01/14 15:23:19;;;;;;;22.25;12.40;;;;;;;;;;5110854;28;20027;-69
2022/01/14 15:25:46;;;;;;;20.83;12.27;;;;;;;;;;5110468;28;20031;-69
2022/01/14 15:28:13;;;;;;;18.88;12.27;;;;;;;;;;5110852;28;20071;-69
2022/01/14 15:30:40;;;;;;;18.02;10.07;;;;;;;;;;5110591;28;20099;-69
2022/01/14 15:33:07;;;;;;;22.05;11.07;;;;;;;;;;5110236;28;20527;-68
2022/01/14 15:35:34;;;;;;;27.05;14.32;;;;;;;;;;5110449;28;20084;-69
2022/01/14 15:38:05;;;;;;;28.73;16.77;;;;;;;;;;5110606;28;20015;-69
2022/01/14 15:40:36;;;;;;;53.70;31.08;;;;;;;;;;5110023;28;20097;-69
2022/01/14 15:43:02;;;;;;;56.30;31.10;;;;;;;;;;5110612;28;20504;-68
2022/01/14 15:45:28;;;;;;;47.78;28.70;;;;;;;;;;5110433;28;20081;-69
2022/01/14 15:47:55;;;;;;;47.92;25.27;;;;;;;;;;5110238;28;20099;-68
2022/01/14 15:50:21;;;;;;;53.45;30.25;;;;;;;;;;5110262;28;20028;-68
2022/01/14 15:52:47;;;;;;;47.30;27.08;;;;;;;;;;5109024;28;20016;-68
2022/01/14 15:55:14;;;;;;;37.38;21.48;;;;;;;;;;5109950;28;20042;-68
2022/01/14 15:57:40;;;;;;;45.80;24.70;;;;;;;;;;5110040;28;20022;-68
2022/01/14 16:00:08;;;;;;;36.08;20.85;;;;;;;;;;5109768;28;20048;-68